createdAt,value
2018-05-25T00:01:58.977Z,37.73
2018-05-25T00:04:26.448Z,30.37
2018-05-25T00:06:53.929Z,43.27
2018-05-25T00:09:22.217Z,39.57
2018-05-25T00:11:49.700Z,45.10
2018-05-25T00:14:17.196Z,41.10
2018-05-25T00:16:44.657Z,39.13
2018-05-25T00:19:12.145Z,36.47
2018-05-25T00:21:39.632Z,57.23
2018-05-25T00:24:07.118Z,40.47
2018-05-25T00:26:34.600Z,37.27
2018-05-25T00:29:02.864Z,38.30
2018-05-25T00:31:30.332Z,45.73
2018-05-25T00:33:57.796Z,39.77
2018-05-25T00:36:26.047Z,38.27
2018-05-25T00:38:53.532Z,40.30
2018-05-25T00:41:21.784Z,49.37
2018-05-25T00:43:49.285Z,40.67
2018-05-25T00:46:16.764Z,40.97
2018-05-25T00:48:44.237Z,42.33
2018-05-25T00:51:11.731Z,39.10
2018-05-25T00:53:39.204Z,39.23
2018-05-25T00:56:06.708Z,40.07
2018-05-25T00:58:34.172Z,39.50
2018-05-25T01:01:01.706Z,43.83
2018-05-25T01:03:29.163Z,36.77
2018-05-25T01:05:56.625Z,40.70
2018-05-25T01:08:24.121Z,43.33
2018-05-25T01:10:51.588Z,39.77
2018-05-25T01:13:19.060Z,38.37
2018-05-25T01:15:46.544Z,40.40
2018-05-25T01:18:14.023Z,45.27
2018-05-25T01:20:41.508Z,39.77
2018-05-25T01:23:08.984Z,37.63
2018-05-25T01:25:36.474Z,39.07
2018-05-25T01:28:04.724Z,42.83
2018-05-25T01:30:32.211Z,40.60
2018-05-25T01:33:00.469Z,40.03
2018-05-25T01:35:28.712Z,37.50
2018-05-25T01:37:56.208Z,38.30
2018-05-25T01:40:24.448Z,38.93
2018-05-25T01:42:51.940Z,39.40
2018-05-25T01:45:20.164Z,50.23
2018-05-25T01:47:47.653Z,40.37
2018-05-25T01:50:15.113Z,35.57
2018-05-25T01:52:42.593Z,36.77
2018-05-25T01:55:10.825Z,40.80
2018-05-25T01:57:38.323Z,37.57
2018-05-25T02:00:05.796Z,33.47
2018-05-25T02:02:34.053Z,47.40
2018-05-25T02:05:01.520Z,47.13
2018-05-25T02:07:29.001Z,42.63
2018-05-25T02:09:57.248Z,38.83
2018-05-25T02:12:24.745Z,42.87
2018-05-25T02:14:52.224Z,45.40
2018-05-25T02:17:19.681Z,37.17
2018-05-25T02:19:47.164Z,49.47
2018-05-25T02:22:14.646Z,37.90
2018-05-25T02:24:42.147Z,39.70
2018-05-25T02:27:09.625Z,43.77
2018-05-25T02:29:37.132Z,47.03
2018-05-25T02:32:05.391Z,49.27
2018-05-25T02:34:32.880Z,47.43
2018-05-25T02:37:00.340Z,39.33
2018-05-25T02:39:28.593Z,53.23
2018-05-25T02:41:56.073Z,44.80
2018-05-25T02:44:24.323Z,42.13
2018-05-25T02:46:51.820Z,40.53
2018-05-25T02:49:19.284Z,47.20
2018-05-25T02:51:46.769Z,43.97
2018-05-25T02:54:14.267Z,49.83
2018-05-25T02:56:41.720Z,41.60
2018-05-25T02:59:09.227Z,45.90
2018-05-25T03:01:36.703Z,47.40
2018-05-25T03:04:04.186Z,48.73
2018-05-25T03:06:31.674Z,48.90
2018-05-25T03:08:59.924Z,46.80
2018-05-25T03:11:27.404Z,45.93
2018-05-25T03:13:55.652Z,46.10
2018-05-25T03:16:23.157Z,47.40
2018-05-25T03:18:50.867Z,42.27
2018-05-25T03:21:18.356Z,47.83
2018-05-25T03:23:45.852Z,47.50
2018-05-25T03:26:13.430Z,45.83
2018-05-25T03:28:40.931Z,41.50
2018-05-25T03:31:09.169Z,46.80
2018-05-25T03:33:36.664Z,44.63
2018-05-25T03:36:04.940Z,53.83
2018-05-25T03:38:33.188Z,49.63
2018-05-25T03:41:00.684Z,50.53
2018-05-25T03:43:28.187Z,46.10
2018-05-25T03:45:55.664Z,60.67
2018-05-25T03:48:23.160Z,44.93
2018-05-25T03:50:51.453Z,53.27
2018-05-25T03:53:18.945Z,52.33
2018-05-25T03:55:46.413Z,43.73
2018-05-25T03:58:13.889Z,42.33
2018-05-25T04:00:53.267Z,55.83
2018-05-25T04:03:20.753Z,48.00
2018-05-25T04:05:48.218Z,55.07
2018-05-25T04:08:15.716Z,49.10
2018-05-25T04:10:43.181Z,43.30
2018-05-25T04:13:11.436Z,45.57
2018-05-25T04:15:38.907Z,54.63
2018-05-25T04:18:06.413Z,43.20
2018-05-25T04:20:33.978Z,43.83
2018-05-25T04:23:01.468Z,43.43
2018-05-25T04:25:28.966Z,46.27
2018-05-25T04:27:57.208Z,45.00
2018-05-25T04:30:24.701Z,47.67
2018-05-25T04:32:52.194Z,46.23
2018-05-25T04:35:19.680Z,49.03
2018-05-25T04:37:47.170Z,51.60
2018-05-25T04:40:14.647Z,42.10
2018-05-25T04:42:42.157Z,43.60
2018-05-25T04:45:09.779Z,50.33
2018-05-25T04:47:37.251Z,42.17
2018-05-25T04:50:04.848Z,42.50
2018-05-25T04:52:32.363Z,47.67
2018-05-25T04:54:59.854Z,48.80
2018-05-25T04:57:27.360Z,46.50
2018-05-25T04:59:54.844Z,51.53
2018-05-25T05:02:22.363Z,42.80
2018-05-25T05:04:49.881Z,46.87
2018-05-25T05:07:17.354Z,49.77
2018-05-25T05:09:44.841Z,49.13
2018-05-25T05:12:13.072Z,54.53
2018-05-25T05:14:40.537Z,40.67
2018-05-25T05:17:08.030Z,47.13
2018-05-25T05:19:36.330Z,44.03
2018-05-25T05:22:03.804Z,46.67
2018-05-25T05:24:31.279Z,45.13
2018-05-25T05:26:58.761Z,48.53
2018-05-25T05:29:26.872Z,49.37
2018-05-25T05:31:54.587Z,47.73
2018-05-25T05:34:22.935Z,44.10
2018-05-25T05:36:50.501Z,47.90
2018-05-25T05:39:17.999Z,45.40
2018-05-25T05:41:45.510Z,48.00
2018-05-25T05:44:12.999Z,57.93
2018-05-25T05:46:40.634Z,57.20
2018-05-25T05:49:08.190Z,45.17
2018-05-25T05:51:35.668Z,48.60
2018-05-25T05:54:03.146Z,49.47
2018-05-25T05:56:30.642Z,59.77
2018-05-25T05:58:58.132Z,52.90
2018-05-25T06:01:25.620Z,49.63
2018-05-25T06:03:53.086Z,48.23
2018-05-25T06:06:20.603Z,51.40
2018-05-25T06:08:48.067Z,48.23
2018-05-25T06:11:15.564Z,46.87
2018-05-25T06:13:43.053Z,45.53
2018-05-25T06:16:10.552Z,54.50
2018-05-25T06:18:38.017Z,43.00
2018-05-25T06:21:05.479Z,54.27
2018-05-25T06:23:32.956Z,58.03
2018-05-25T06:26:00.416Z,52.10
2018-05-25T06:28:27.908Z,45.93
2018-05-25T06:30:56.136Z,47.40
2018-05-25T06:33:23.621Z,46.07
2018-05-25T06:35:51.088Z,48.40
2018-05-25T06:38:19.336Z,45.63
2018-05-25T06:40:46.830Z,49.80
2018-05-25T06:43:15.089Z,50.80
2018-05-25T06:45:42.589Z,41.03
2018-05-25T06:48:10.057Z,45.77
2018-05-25T06:50:37.560Z,41.87
2018-05-25T06:53:05.044Z,44.10
2018-05-25T06:55:32.513Z,43.20
2018-05-25T06:58:00.003Z,41.87
2018-05-25T07:00:27.486Z,46.57
2018-05-25T07:02:54.959Z,44.90
2018-05-25T07:05:22.477Z,43.13
2018-05-25T07:07:49.944Z,45.60
2018-05-25T07:10:17.404Z,44.47
2018-05-25T07:12:44.890Z,49.93
2018-05-25T07:15:12.373Z,46.33
2018-05-25T07:17:39.868Z,49.70
2018-05-25T07:20:07.358Z,42.43
2018-05-25T07:22:34.840Z,46.57
2018-05-25T07:25:03.073Z,47.47
2018-05-25T07:27:30.572Z,45.23
2018-05-25T07:29:58.069Z,49.93
2018-05-25T07:32:25.535Z,45.80
2018-05-25T07:34:52.996Z,46.20
2018-05-25T07:37:20.489Z,49.37
2018-05-25T07:39:47.963Z,46.80
2018-05-25T07:42:15.448Z,44.47
2018-05-25T07:44:42.910Z,48.37
2018-05-25T07:47:10.402Z,38.60
2018-05-25T07:49:37.865Z,40.17
2018-05-25T07:52:05.348Z,55.97
2018-05-25T07:54:32.813Z,48.07
2018-05-25T07:57:00.292Z,42.40
2018-05-25T07:59:27.824Z,61.27
2018-05-25T08:01:55.288Z,45.23
2018-05-25T08:04:22.840Z,45.33
2018-05-25T08:06:50.305Z,45.30
2018-05-25T08:09:17.803Z,36.40
2018-05-25T08:11:45.292Z,44.50
2018-05-25T08:14:12.754Z,44.90
2018-05-25T08:16:40.232Z,39.90
2018-05-25T08:19:07.717Z,38.13
2018-05-25T08:21:35.953Z,50.03
2018-05-25T08:24:03.433Z,40.87
2018-05-25T08:26:30.908Z,39.10
2018-05-25T08:28:58.373Z,47.13
2018-05-25T08:31:25.856Z,41.53
2018-05-25T08:33:53.349Z,37.93
2018-05-25T08:36:20.828Z,41.63
2018-05-25T08:38:48.328Z,43.30
2018-05-25T08:41:15.794Z,49.93
2018-05-25T08:43:43.265Z,39.17
2018-05-25T08:46:10.744Z,45.00
2018-05-25T08:48:38.243Z,42.20
2018-05-25T08:51:05.700Z,42.47
2018-05-25T08:53:33.929Z,42.37
2018-05-25T08:56:01.472Z,45.20
2018-05-25T08:58:29.663Z,45.50
2018-05-25T09:00:57.154Z,49.67
2018-05-25T09:03:24.605Z,50.80
2018-05-25T09:05:52.098Z,52.47
2018-05-25T09:08:19.580Z,46.70
2018-05-25T09:10:47.087Z,50.83
2018-05-25T09:13:15.326Z,49.80
2018-05-25T09:15:42.816Z,51.00
2018-05-25T09:18:10.276Z,45.57
2018-05-25T09:20:38.528Z,45.93
2018-05-25T09:23:06.001Z,50.97
2018-05-25T09:25:33.488Z,44.73
2018-05-25T09:28:01.737Z,49.57
2018-05-25T09:30:29.243Z,49.60
2018-05-25T09:32:56.697Z,50.30
2018-05-25T09:35:24.175Z,45.00
2018-05-25T09:37:51.664Z,46.27
2018-05-25T09:40:19.153Z,42.20
2018-05-25T09:42:47.372Z,43.83
2018-05-25T09:45:14.861Z,45.97
2018-05-25T09:47:42.321Z,46.77
2018-05-25T09:50:09.796Z,44.60
2018-05-25T09:52:38.045Z,46.03
2018-05-25T09:55:05.536Z,45.57
2018-05-25T09:57:33.765Z,46.10
2018-05-25T10:00:01.298Z,44.83
2018-05-25T10:02:28.796Z,43.27
2018-05-25T10:04:56.276Z,40.23
2018-05-25T10:07:23.740Z,31.10
2018-05-25T10:09:51.201Z,34.27
2018-05-25T10:12:18.693Z,29.10
2018-05-25T10:14:46.150Z,27.97
2018-05-25T10:17:13.633Z,33.47
2018-05-25T10:19:41.885Z,32.17
2018-05-25T10:22:09.359Z,34.23
2018-05-25T10:24:36.849Z,31.80
2018-05-25T10:27:04.311Z,30.13
2018-05-25T10:29:31.847Z,30.10
2018-05-25T10:31:59.312Z,33.43
2018-05-25T10:34:26.768Z,33.60
2018-05-25T10:36:54.253Z,34.93
2018-05-25T10:39:21.762Z,34.10
2018-05-25T10:41:49.245Z,37.00
2018-05-25T10:44:16.699Z,39.63
2018-05-25T10:46:44.185Z,34.87
2018-05-25T10:49:11.669Z,35.40
2018-05-25T10:51:39.916Z,30.40
2018-05-25T10:54:07.380Z,36.43
2018-05-25T10:56:35.671Z,30.00
2018-05-25T10:59:03.957Z,37.00
2018-05-25T11:01:32.185Z,34.60
2018-05-25T11:03:59.663Z,30.83
2018-05-25T11:06:27.149Z,32.53
2018-05-25T11:08:55.395Z,32.83
2018-05-25T11:11:22.884Z,32.03
2018-05-25T11:13:51.116Z,29.13
2018-05-25T11:16:18.639Z,39.73
2018-05-25T11:18:46.122Z,35.20
2018-05-25T11:21:13.604Z,30.03
2018-05-25T11:23:41.069Z,33.33
2018-05-25T11:26:08.553Z,23.50
2018-05-25T11:28:36.016Z,27.43
2018-05-25T11:31:03.524Z,24.57
2018-05-25T11:33:30.997Z,27.17
2018-05-25T11:35:58.477Z,23.97
2018-05-25T11:38:26.704Z,29.00
2018-05-25T11:40:54.201Z,31.80
2018-05-25T11:43:21.814Z,25.23
2018-05-25T11:45:49.308Z,26.13
2018-05-25T11:48:16.788Z,31.50
2018-05-25T11:50:45.108Z,33.27
2018-05-25T11:53:12.591Z,25.30
2018-05-25T11:55:40.059Z,25.77
2018-05-25T11:58:07.564Z,32.20
2018-05-25T12:00:35.023Z,30.17
2018-05-25T12:03:02.536Z,52.40
2018-05-25T12:05:30.015Z,48.63
2018-05-25T12:07:58.245Z,28.13
2018-05-25T12:10:25.727Z,22.73
2018-05-25T12:12:53.229Z,29.53
2018-05-25T12:15:21.500Z,25.00
2018-05-25T12:17:49.736Z,26.77
2018-05-25T12:20:17.252Z,24.87
2018-05-25T12:22:44.741Z,24.10
2018-05-25T12:25:12.239Z,29.50
2018-05-25T12:27:39.696Z,23.37
2018-05-25T12:30:07.162Z,20.60
2018-05-25T12:32:35.409Z,22.97
2018-05-25T12:35:02.912Z,31.03
2018-05-25T12:37:30.376Z,23.20
2018-05-25T12:39:57.865Z,25.43
2018-05-25T12:42:25.352Z,28.93
2018-05-25T12:45:04.460Z,22.40
2018-05-25T12:47:31.945Z,24.37
2018-05-25T12:49:59.420Z,26.77
2018-05-25T12:52:27.670Z,27.73
2018-05-25T12:54:55.141Z,28.37
2018-05-25T12:57:22.665Z,20.03
2018-05-25T12:59:50.134Z,21.13
2018-05-25T13:02:17.633Z,19.10
2018-05-25T13:04:45.860Z,17.57
2018-05-25T13:07:13.343Z,22.70
2018-05-25T13:09:40.804Z,22.47
2018-05-25T13:12:08.288Z,22.07
2018-05-25T13:14:35.780Z,21.90
2018-05-25T13:17:03.244Z,23.67
2018-05-25T13:19:30.793Z,21.67
2018-05-25T13:21:58.265Z,22.10
2018-05-25T13:24:25.764Z,20.67
2018-05-25T13:26:53.258Z,20.00
2018-05-25T13:29:20.721Z,20.13
2018-05-25T13:31:48.216Z,22.03
2018-05-25T13:34:15.684Z,22.13
2018-05-25T13:36:43.161Z,18.37
2018-05-25T13:39:10.653Z,18.73
2018-05-25T13:41:38.137Z,17.90
2018-05-25T13:44:05.616Z,16.47
2018-05-25T13:46:33.105Z,18.57
2018-05-25T13:49:01.354Z,19.60
2018-05-25T13:51:28.853Z,12.77
2018-05-25T13:53:56.325Z,13.33
2018-05-25T13:56:23.830Z,14.87
2018-05-25T13:58:51.289Z,10.57
2018-05-25T14:01:19.527Z,22.53
2018-05-25T14:03:47.034Z,12.53
2018-05-25T14:06:14.515Z,13.47
2018-05-25T14:08:42.747Z,13.40
2018-05-25T14:11:10.235Z,11.67
2018-05-25T14:13:38.403Z,19.00
2018-05-25T14:16:05.914Z,13.57
2018-05-25T14:18:33.372Z,14.70
2018-05-25T14:21:00.849Z,10.67
2018-05-25T14:23:28.331Z,7.43
2018-05-25T14:25:55.831Z,10.30
2018-05-25T14:28:24.053Z,8.37
2018-05-25T14:30:51.528Z,8.67
2018-05-25T14:33:19.019Z,8.80
2018-05-25T14:35:46.511Z,8.57
2018-05-25T14:38:13.964Z,7.60
2018-05-25T14:40:41.449Z,10.40
2018-05-25T14:43:08.911Z,9.63
2018-05-25T14:45:36.372Z,11.40
2018-05-25T14:48:03.848Z,8.60
2018-05-25T14:50:31.325Z,9.30
2018-05-25T14:52:59.556Z,11.47
2018-05-25T14:55:27.036Z,8.30
2018-05-25T14:57:54.519Z,9.10
2018-05-25T15:00:21.975Z,9.10
2018-05-25T15:02:49.469Z,11.10
2018-05-25T15:05:16.962Z,12.97
2018-05-25T15:07:44.413Z,11.07
2018-05-25T15:10:11.896Z,9.57
2018-05-25T15:12:39.349Z,8.10
2018-05-25T15:15:06.818Z,8.33
2018-05-25T15:17:34.267Z,7.83
2018-05-25T15:20:01.813Z,10.80
2018-05-25T15:22:30.065Z,8.47
2018-05-25T15:24:57.516Z,9.80
2018-05-25T15:27:25.005Z,12.00
2018-05-25T15:29:52.461Z,9.50
2018-05-25T15:32:19.957Z,9.40
2018-05-25T15:34:48.185Z,9.73
2018-05-25T15:37:15.644Z,8.60
2018-05-25T15:39:43.222Z,12.53
2018-05-25T15:42:10.688Z,12.40
2018-05-25T15:44:38.163Z,13.40
2018-05-25T15:47:06.392Z,11.20
2018-05-25T15:49:33.872Z,12.60
2018-05-25T15:52:01.383Z,11.80
2018-05-25T15:54:28.845Z,11.17
2018-05-25T15:56:56.409Z,13.03
2018-05-25T15:59:23.908Z,12.90
2018-05-25T16:01:51.360Z,12.10
2018-05-25T16:04:18.837Z,12.80
2018-05-25T16:06:46.299Z,11.67
2018-05-25T16:09:13.806Z,18.43
2018-05-25T16:11:41.273Z,9.80
2018-05-25T16:14:08.750Z,17.40
2018-05-25T16:16:36.248Z,16.33
2018-05-25T16:19:04.469Z,8.60
2018-05-25T16:21:31.929Z,11.90
2018-05-25T16:23:59.581Z,10.83
2018-05-25T16:26:27.047Z,9.70
2018-05-25T16:28:54.612Z,14.07
2018-05-25T16:31:22.800Z,10.57
2018-05-25T16:33:50.268Z,8.70
2018-05-25T16:36:17.760Z,15.00
2018-05-25T16:38:46.020Z,11.83
2018-05-25T16:41:13.492Z,11.40
2018-05-25T16:43:41.740Z,9.80
2018-05-25T16:46:09.276Z,11.73
2018-05-25T16:48:37.459Z,61.10
2018-05-25T16:51:04.928Z,94.80
2018-05-25T16:53:32.399Z,35.30
2018-05-25T16:55:59.911Z,24.57
2018-05-25T16:58:27.613Z,16.10
2018-05-25T17:00:55.390Z,13.80
2018-05-25T17:03:22.998Z,12.90
2018-05-25T17:05:50.590Z,13.40
2018-05-25T17:08:18.112Z,11.70
2018-05-25T17:10:45.588Z,14.10
2018-05-25T17:13:13.257Z,19.37
2018-05-25T17:15:40.994Z,13.70
2018-05-25T17:18:08.688Z,11.97
2018-05-25T17:20:36.175Z,16.80
2018-05-25T17:23:03.913Z,13.93
2018-05-25T17:25:31.582Z,12.43
2018-05-25T17:27:59.135Z,9.93
2018-05-25T17:30:26.825Z,14.90
2018-05-25T17:32:54.417Z,10.77
2018-05-25T17:35:22.817Z,15.30
2018-05-25T17:37:50.594Z,486.57
2018-05-25T17:40:18.098Z,278.53
2018-05-25T17:42:45.854Z,107.20
2018-05-25T17:45:14.135Z,38.97
2018-05-25T17:47:41.628Z,16.70
2018-05-25T17:50:10.064Z,14.67
2018-05-25T17:52:38.645Z,14.43
2018-05-25T17:55:06.248Z,11.83
2018-05-25T17:57:33.812Z,20.93
2018-05-25T18:00:01.364Z,11.47
2018-05-25T18:02:29.821Z,18.20
2018-05-25T18:04:57.424Z,10.00
2018-05-25T18:07:24.979Z,9.80
2018-05-25T18:09:52.779Z,10.43
2018-05-25T18:12:20.247Z,15.73
2018-05-25T18:14:47.736Z,10.00
2018-05-25T18:17:15.229Z,11.80
2018-05-25T18:19:43.473Z,12.43
2018-05-25T18:22:10.964Z,11.43
2018-05-25T18:24:38.448Z,15.03
2018-05-25T18:27:05.903Z,13.23
2018-05-25T18:29:34.228Z,9.30
2018-05-25T18:32:01.809Z,17.80
2018-05-25T18:34:30.028Z,14.57
2018-05-25T18:36:57.501Z,15.87
2018-05-25T18:39:24.990Z,9.43
2018-05-25T18:41:52.450Z,10.23
2018-05-25T18:44:20.714Z,13.10
2018-05-25T18:46:48.194Z,10.97
2018-05-25T18:49:16.464Z,11.67
2018-05-25T18:51:44.708Z,11.50
2018-05-25T18:54:23.955Z,13.23
2018-05-25T18:56:51.543Z,9.00
2018-05-25T18:59:20.853Z,14.00
2018-05-25T19:01:49.102Z,10.57
2018-05-25T19:04:16.552Z,17.57
2018-05-25T19:06:44.044Z,8.87
2018-05-25T19:09:12.315Z,12.50
2018-05-25T19:11:40.732Z,9.10
2018-05-25T19:14:08.313Z,14.73
2018-05-25T19:16:35.857Z,10.43
2018-05-25T19:19:03.337Z,11.50
2018-05-25T19:21:30.928Z,12.10
2018-05-25T19:23:58.480Z,8.87
2018-05-25T19:26:25.943Z,14.90
2018-05-25T19:28:53.443Z,8.87
2018-05-25T19:31:21.060Z,9.30
2018-05-25T19:33:48.558Z,11.87
2018-05-25T19:36:16.051Z,10.90
2018-05-25T19:38:43.532Z,11.80
2018-05-25T19:41:11.028Z,9.60
2018-05-25T19:43:38.627Z,9.87
2018-05-25T19:46:06.114Z,12.63
2018-05-25T19:48:33.697Z,12.23
2018-05-25T19:51:02.006Z,8.53
2018-05-25T19:53:29.522Z,14.03
2018-05-25T19:55:57.041Z,13.33
2018-05-25T19:58:24.517Z,9.80
2018-05-25T20:00:51.995Z,11.33
2018-05-25T20:03:19.502Z,13.30
2018-05-25T20:05:46.955Z,10.63
2018-05-25T20:08:14.429Z,16.83
2018-05-25T20:10:41.911Z,11.73
2018-05-25T20:13:09.397Z,12.80
2018-05-25T20:15:36.885Z,9.07
2018-05-25T20:18:04.380Z,13.70
2018-05-25T20:20:31.915Z,14.17
2018-05-25T20:22:59.390Z,11.30
2018-05-25T20:25:26.872Z,13.73
2018-05-25T20:27:54.338Z,16.30
2018-05-25T20:30:21.816Z,17.60
2018-05-25T20:32:49.287Z,11.50
2018-05-25T20:35:16.793Z,14.90
2018-05-25T20:37:44.273Z,12.57
2018-05-25T20:40:11.851Z,10.40
2018-05-25T20:42:39.340Z,11.07
2018-05-25T20:45:06.921Z,15.10
2018-05-25T20:47:34.384Z,12.87
2018-05-25T20:50:01.927Z,10.70
2018-05-25T20:52:30.203Z,12.17
2018-05-25T20:54:57.664Z,13.40
2018-05-25T20:57:25.157Z,19.20
2018-05-25T20:59:52.615Z,22.07
2018-05-25T21:02:20.109Z,11.13
2018-05-25T21:04:47.607Z,12.10
2018-05-25T21:07:15.093Z,18.90
2018-05-25T21:09:42.580Z,20.13
2018-05-25T21:12:10.112Z,17.10
2018-05-25T21:14:37.635Z,18.37
2018-05-25T21:17:05.108Z,14.73
2018-05-25T21:19:32.570Z,14.23
2018-05-25T21:22:01.306Z,13.27
2018-05-25T21:24:28.764Z,14.27
2018-05-25T21:26:56.252Z,21.60
2018-05-25T21:29:23.740Z,14.30
2018-05-25T21:31:51.211Z,13.57
2018-05-25T21:34:18.702Z,21.07
2018-05-25T21:36:46.182Z,20.43
2018-05-25T21:39:13.635Z,15.23
2018-05-25T21:41:41.127Z,18.07
2018-05-25T21:44:08.592Z,16.10
2018-05-25T21:46:36.052Z,16.07
2018-05-25T21:49:03.721Z,17.50
2018-05-25T21:51:31.224Z,20.10
2018-05-25T21:53:58.725Z,17.23
2018-05-25T21:56:26.213Z,19.30
2018-05-25T21:58:54.464Z,20.00
2018-05-25T22:01:21.931Z,19.57
2018-05-25T22:03:49.420Z,16.23
2018-05-25T22:06:16.892Z,20.50
2018-05-25T22:08:44.380Z,18.77
2018-05-25T22:11:11.868Z,20.43
2018-05-25T22:13:39.333Z,18.10
2018-05-25T22:16:06.800Z,16.30
2018-05-25T22:18:35.048Z,19.43
2018-05-25T22:21:02.520Z,17.67
2018-05-25T22:23:30.005Z,20.90
2018-05-25T22:25:57.508Z,32.17
2018-05-25T22:28:25.004Z,21.20
2018-05-25T22:30:52.485Z,18.93
2018-05-25T22:33:19.993Z,18.30
2018-05-25T22:35:47.458Z,17.03
2018-05-25T22:38:14.935Z,18.97
2018-05-25T22:40:42.416Z,18.10
2018-05-25T22:43:22.426Z,19.13
2018-05-25T22:46:01.771Z,19.70
2018-05-25T22:48:40.985Z,25.80
2018-05-25T22:51:20.460Z,19.27
2018-05-25T22:53:53.189Z,21.43
2018-05-25T22:56:20.654Z,20.77
2018-05-25T22:58:48.145Z,18.07
2018-05-25T23:01:15.632Z,18.50
2018-05-25T23:03:43.954Z,17.13
2018-05-25T23:06:11.448Z,23.60
2018-05-25T23:08:38.937Z,19.97
2018-05-25T23:11:07.160Z,23.13
2018-05-25T23:13:34.639Z,16.60
2018-05-25T23:16:02.097Z,23.50
2018-05-25T23:18:29.629Z,21.17
2018-05-25T23:20:57.077Z,19.97
2018-05-25T23:23:24.564Z,22.63
2018-05-25T23:25:52.354Z,24.63
2018-05-25T23:28:20.604Z,20.93
2018-05-25T23:30:48.068Z,21.80
2018-05-25T23:33:15.549Z,21.77
2018-05-25T23:35:43.796Z,21.93
2018-05-25T23:38:11.259Z,18.23
2018-05-25T23:40:38.757Z,17.67
2018-05-25T23:43:06.997Z,25.57
2018-05-25T23:45:34.480Z,20.93
2018-05-25T23:48:02.841Z,30.53
2018-05-25T23:50:30.345Z,20.77
2018-05-25T23:52:57.800Z,21.37
2018-05-25T23:55:25.261Z,26.23
2018-05-25T23:57:52.744Z,22.90
